createdAt,value
2023-04-03T00:01:54.543Z,100577.03
2023-04-03T00:04:21.123Z,100576.34
2023-04-03T00:06:47.561Z,100575.69
2023-04-03T00:09:13.956Z,100584.50
2023-04-03T00:11:40.442Z,100582.88
2023-04-03T00:14:06.838Z,100580.84
2023-04-03T00:16:33.402Z,100583.44
2023-04-03T00:18:59.835Z,100584.44
2023-04-03T00:21:27.088Z,100575.06
2023-04-03T00:23:53.536Z,100565.59
2023-04-03T00:26:19.974Z,100566.31
2023-04-03T00:28:46.410Z,100570.66
2023-04-03T00:31:16.347Z,100561.91
2023-04-03T00:33:43.068Z,100571.16
2023-04-03T00:36:11.293Z,100573.53
2023-04-03T00:38:38.091Z,100577.72
2023-04-03T00:41:05.538Z,100581.56
2023-04-03T00:43:31.966Z,100577.44
2023-04-03T00:45:59.983Z,100586.84
2023-04-03T00:48:35.867Z,100584.28
2023-04-03T00:51:04.735Z,100581.38
2023-04-03T00:53:40.022Z,100570.28
2023-04-03T00:56:09.954Z,100574.25
2023-04-03T00:58:44.097Z,100571.53
2023-04-03T01:01:15.485Z,100570.47
2023-04-03T01:03:41.806Z,100571.47
2023-04-03T01:06:08.628Z,100584.09
2023-04-03T01:08:36.462Z,100579.31
2023-04-03T01:11:02.992Z,100573.47
2023-04-03T01:13:33.265Z,100573.91
2023-04-03T01:16:07.026Z,100579.09
2023-04-03T01:18:36.708Z,100573.75
2023-04-03T01:21:37.965Z,100574.00
2023-04-03T01:24:19.620Z,100571.19
2023-04-03T01:26:46.424Z,100570.44
2023-04-03T01:29:12.902Z,100576.06
2023-04-03T01:31:49.913Z,100572.91
2023-04-03T01:34:16.573Z,100565.78
2023-04-03T01:36:43.825Z,100565.97
2023-04-03T01:39:10.409Z,100558.91
2023-04-03T01:41:36.905Z,100559.44
2023-04-03T01:44:04.745Z,100560.00
2023-04-03T01:46:31.219Z,100567.22
2023-04-03T01:48:57.603Z,100562.78
2023-04-03T01:51:24.080Z,100553.06
2023-04-03T01:53:50.677Z,100561.97
2023-04-03T01:56:17.058Z,100556.47
2023-04-03T01:58:43.458Z,100561.31
2023-04-03T02:01:09.852Z,100556.88
2023-04-03T02:03:36.589Z,100557.44
2023-04-03T02:06:03.488Z,100543.22
2023-04-03T02:08:29.908Z,100544.63
2023-04-03T02:10:56.351Z,100543.00
2023-04-03T02:13:22.748Z,100541.25
2023-04-03T02:15:49.160Z,100536.19
2023-04-03T02:18:15.800Z,100537.06
2023-04-03T02:20:42.184Z,100533.88
2023-04-03T02:23:08.650Z,100532.31
2023-04-03T02:25:37.176Z,100534.28
2023-04-03T02:28:05.068Z,100532.50
2023-04-03T02:30:31.460Z,100537.31
2023-04-03T02:32:57.950Z,100538.84
2023-04-03T02:35:24.429Z,100538.25
2023-04-03T02:37:50.883Z,100540.75
2023-04-03T02:40:18.344Z,100536.56
2023-04-03T02:42:44.843Z,100535.97
2023-04-03T02:45:11.400Z,100539.00
2023-04-03T02:47:37.852Z,100544.13
2023-04-03T02:50:04.683Z,100538.38
2023-04-03T02:52:31.102Z,100527.69
2023-04-03T02:54:57.475Z,100528.44
2023-04-03T02:57:23.890Z,100515.72
2023-04-03T02:59:50.346Z,100522.78
2023-04-03T03:02:16.758Z,100522.66
2023-04-03T03:04:43.704Z,100523.38
2023-04-03T03:07:10.398Z,100519.94
2023-04-03T03:09:37.081Z,100515.44
2023-04-03T03:12:04.653Z,100519.91
2023-04-03T03:14:31.143Z,100524.53
2023-04-03T03:16:57.612Z,100528.59
2023-04-03T03:19:24.025Z,100529.09
2023-04-03T03:21:51.118Z,100533.38
2023-04-03T03:24:17.603Z,100531.47
2023-04-03T03:26:44.174Z,100530.31
2023-04-03T03:29:10.697Z,100516.47
2023-04-03T03:31:37.126Z,100517.38
2023-04-03T03:34:03.567Z,100521.91
2023-04-03T03:36:29.940Z,100525.66
2023-04-03T03:38:56.375Z,100531.19
2023-04-03T03:41:22.791Z,100527.25
2023-04-03T03:43:49.192Z,100530.56
2023-04-03T03:46:15.685Z,100531.19
2023-04-03T03:48:42.139Z,100534.03
2023-04-03T03:51:08.541Z,100528.94
2023-04-03T03:53:35.039Z,100527.59
2023-04-03T03:56:01.849Z,100529.72
2023-04-03T03:58:28.318Z,100535.16
2023-04-03T04:00:54.765Z,100532.44
2023-04-03T04:03:22.009Z,100538.19
2023-04-03T04:05:48.582Z,100528.22
2023-04-03T04:08:14.989Z,100535.16
2023-04-03T04:10:41.373Z,100538.16
2023-04-03T04:13:07.777Z,100543.28
2023-04-03T04:15:35.000Z,100538.19
2023-04-03T04:18:01.844Z,100540.13
2023-04-03T04:20:28.330Z,100538.63
2023-04-03T04:22:54.701Z,100547.19
2023-04-03T04:25:21.195Z,100550.22
2023-04-03T04:27:47.640Z,100543.28
2023-04-03T04:30:14.475Z,100542.41
2023-04-03T04:32:40.895Z,100540.91
2023-04-03T04:35:07.805Z,100536.66
2023-04-03T04:37:34.460Z,100535.16
2023-04-03T04:40:01.122Z,100528.25
2023-04-03T04:42:27.612Z,100532.47
2023-04-03T04:44:54.127Z,100523.75
2023-04-03T04:47:20.711Z,100533.66
2023-04-03T04:49:48.418Z,100534.72
2023-04-03T04:52:15.650Z,100545.09
2023-04-03T04:54:42.114Z,100546.44
2023-04-03T04:57:08.619Z,100553.09
2023-04-03T04:59:35.149Z,100556.25
2023-04-03T05:02:01.671Z,100565.00
2023-04-03T05:04:28.281Z,100559.38
2023-04-03T05:06:54.839Z,100566.75
2023-04-03T05:09:21.849Z,100562.41
2023-04-03T05:11:48.295Z,100569.78
2023-04-03T05:14:14.784Z,100565.13
2023-04-03T05:16:41.211Z,100571.75
2023-04-03T05:19:07.623Z,100574.16
2023-04-03T05:21:34.067Z,100578.09
2023-04-03T05:24:03.533Z,100572.34
2023-04-03T05:26:31.612Z,100576.13
2023-04-03T05:28:58.650Z,100583.63
2023-04-03T05:31:25.248Z,100584.84
2023-04-03T05:33:51.775Z,100589.50
2023-04-03T05:36:18.702Z,100585.63
2023-04-03T05:38:45.404Z,100597.94
2023-04-03T05:41:11.935Z,100591.63
2023-04-03T05:43:39.905Z,100597.53
2023-04-03T05:46:15.014Z,100588.91
2023-04-03T05:48:41.747Z,100598.88
2023-04-03T05:51:14.528Z,100598.69
2023-04-03T05:53:42.010Z,100601.09
2023-04-03T05:56:08.426Z,100600.47
2023-04-03T05:58:34.816Z,100590.84
2023-04-03T06:01:01.515Z,100603.13
2023-04-03T06:03:28.069Z,100592.25
2023-04-03T06:05:54.605Z,100595.88
2023-04-03T06:08:21.527Z,100599.78
2023-04-03T06:10:48.728Z,100597.94
2023-04-03T06:13:15.171Z,100598.22
2023-04-03T06:15:41.616Z,100591.88
2023-04-03T06:18:08.238Z,100601.03
2023-04-03T06:20:35.039Z,100603.91
2023-04-03T06:23:01.555Z,100613.84
2023-04-03T06:25:27.991Z,100608.69
2023-04-03T06:27:56.496Z,100615.94
2023-04-03T06:30:22.950Z,100612.81
2023-04-03T06:32:49.564Z,100609.03
2023-04-03T06:35:26.717Z,100606.59
2023-04-03T06:37:57.783Z,100614.06
2023-04-03T06:40:42.438Z,100609.69
2023-04-03T06:43:09.497Z,100608.31
2023-04-03T06:45:37.419Z,100619.00
2023-04-03T06:48:04.283Z,100619.47
2023-04-03T06:50:30.987Z,100614.16
2023-04-03T06:52:57.728Z,100622.25
2023-04-03T06:55:24.214Z,100615.00
2023-04-03T06:57:50.990Z,100620.41
2023-04-03T07:00:17.933Z,100620.69
2023-04-03T07:02:44.532Z,100619.78
2023-04-03T07:05:11.350Z,100620.34
2023-04-03T07:07:38.779Z,100620.22
2023-04-03T07:10:07.259Z,100620.34
2023-04-03T07:12:33.798Z,100622.13
2023-04-03T07:15:00.596Z,100624.47
2023-04-03T07:17:27.899Z,100625.25
2023-04-03T07:19:54.476Z,100626.63
2023-04-03T07:22:21.129Z,100611.16
2023-04-03T07:24:47.568Z,100613.84
2023-04-03T07:27:14.215Z,100612.47
2023-04-03T07:29:41.025Z,100610.84
2023-04-03T07:32:08.014Z,100614.00
2023-04-03T07:34:34.606Z,100623.28
2023-04-03T07:37:02.071Z,100614.25
2023-04-03T07:39:28.992Z,100611.97
2023-04-03T07:41:58.475Z,100620.06
2023-04-03T07:44:26.180Z,100620.19
2023-04-03T07:46:52.719Z,100612.19
2023-04-03T07:49:19.265Z,100618.75
2023-04-03T07:51:46.385Z,100624.41
2023-04-03T07:54:12.825Z,100627.34
2023-04-03T07:56:39.245Z,100622.81
2023-04-03T07:59:05.722Z,100624.41
2023-04-03T08:01:39.206Z,100628.25
2023-04-03T08:04:06.331Z,100629.41
2023-04-03T08:06:45.932Z,100633.22
2023-04-03T08:09:13.528Z,100636.72
2023-04-03T08:11:40.800Z,100637.19
2023-04-03T08:14:07.389Z,100626.22
2023-04-03T08:16:34.060Z,100630.50
2023-04-03T08:19:00.531Z,100630.84
2023-04-03T08:21:27.810Z,100632.41
2023-04-03T08:23:54.764Z,100621.50
2023-04-03T08:26:24.555Z,100629.25
2023-04-03T08:28:51.120Z,100634.31
2023-04-03T08:31:20.842Z,100625.91
2023-04-03T08:33:48.316Z,100618.13
2023-04-03T08:36:24.216Z,100624.44
2023-04-03T08:38:51.488Z,100618.56
2023-04-03T08:41:34.635Z,100614.03
2023-04-03T08:44:04.876Z,100622.16
2023-04-03T08:47:09.787Z,100613.59
2023-04-03T08:49:54.054Z,100619.47
2023-04-03T08:52:49.636Z,100615.16
2023-04-03T08:55:31.016Z,100615.50
2023-04-03T08:58:05.303Z,100612.59
2023-04-03T09:00:45.774Z,100616.91
2023-04-03T09:03:18.850Z,100611.84
2023-04-03T09:06:07.173Z,100611.97
2023-04-03T09:09:10.675Z,100617.53
2023-04-03T09:12:10.541Z,100619.41
2023-04-03T09:14:58.769Z,100610.97
2023-04-03T09:17:44.211Z,100599.84
2023-04-03T09:20:34.108Z,100601.47
2023-04-03T09:23:00.725Z,100606.72
2023-04-03T09:25:33.720Z,100601.44
2023-04-03T09:28:04.518Z,100606.59
2023-04-03T09:30:31.394Z,100601.56
2023-04-03T09:33:02.451Z,100602.28
2023-04-03T09:35:44.783Z,100595.50
2023-04-03T09:38:14.892Z,100593.88
2023-04-03T09:40:50.572Z,100593.63
2023-04-03T09:43:22.027Z,100593.38
2023-04-03T09:45:50.207Z,100591.66
2023-04-03T09:48:19.816Z,100581.69
2023-04-03T09:50:56.262Z,100584.31
2023-04-03T09:53:45.061Z,100574.94
2023-04-03T09:56:17.355Z,100582.00
2023-04-03T09:58:50.861Z,100568.06
2023-04-03T10:01:25.971Z,100569.38
2023-04-03T10:04:19.586Z,100568.81
2023-04-03T10:06:47.771Z,100559.47
2023-04-03T10:09:43.386Z,100562.63
2023-04-03T10:12:14.123Z,100566.25
2023-04-03T10:14:53.685Z,100556.16
2023-04-03T10:17:49.422Z,100553.75
2023-04-03T10:20:26.155Z,100555.13
2023-04-03T10:23:04.848Z,100560.41
2023-04-03T10:25:47.530Z,100552.56
2023-04-03T10:28:44.425Z,100542.44
2023-04-03T10:31:32.759Z,100532.25
2023-04-03T10:34:18.054Z,100541.19
2023-04-03T10:37:27.013Z,100534.13
2023-04-03T10:40:06.090Z,100535.94
2023-04-03T10:42:50.756Z,100526.25
2023-04-03T10:45:28.993Z,100534.72
2023-04-03T10:47:55.857Z,100536.50
2023-04-03T10:50:44.019Z,100527.44
2023-04-03T10:53:33.912Z,100525.28
2023-04-03T10:56:28.134Z,100522.84
2023-04-03T10:59:08.429Z,100523.78
2023-04-03T11:01:39.665Z,100527.97
2023-04-03T11:04:09.077Z,100510.00
2023-04-03T11:06:50.398Z,100498.28
2023-04-03T11:09:21.459Z,100506.69
2023-04-03T11:11:50.160Z,100500.59
2023-04-03T11:14:27.768Z,100484.22
2023-04-03T11:17:26.306Z,100491.91
2023-04-03T11:19:55.829Z,100480.97
2023-04-03T11:22:38.597Z,100481.06
2023-04-03T11:25:13.682Z,100479.81
2023-04-03T11:27:43.140Z,100472.69
2023-04-03T11:30:19.520Z,100469.63
2023-04-03T11:32:51.933Z,100469.97
2023-04-03T11:35:19.888Z,100467.63
2023-04-03T11:37:51.244Z,100454.19
2023-04-03T11:40:18.894Z,100469.56
2023-04-03T11:42:52.351Z,100466.50
2023-04-03T11:45:25.606Z,100475.50
2023-04-03T11:47:55.939Z,100463.22
2023-04-03T11:50:34.627Z,100456.22
2023-04-03T11:53:07.332Z,100460.94
2023-04-03T11:55:33.945Z,100449.00
2023-04-03T11:58:00.596Z,100447.69
2023-04-03T12:00:48.536Z,100444.81
2023-04-03T12:03:24.002Z,100452.59
2023-04-03T12:05:54.980Z,100440.44
2023-04-03T12:08:33.344Z,100438.91
2023-04-03T12:11:12.095Z,100434.94
2023-04-03T12:14:04.602Z,100431.66
2023-04-03T12:16:45.759Z,100430.38
2023-04-03T12:19:14.989Z,100425.88
2023-04-03T12:21:47.520Z,100414.69
2023-04-03T12:24:16.894Z,100419.25
2023-04-03T12:26:58.950Z,100419.06
2023-04-03T12:29:30.163Z,100418.84
2023-04-03T12:32:15.206Z,100412.81
2023-04-03T12:35:00.584Z,100416.72
2023-04-03T12:38:03.210Z,100410.47
2023-04-03T12:40:44.091Z,100404.31
2023-04-03T12:43:56.166Z,100407.47
2023-04-03T12:46:24.827Z,100403.47
2023-04-03T12:48:56.344Z,100404.94
2023-04-03T12:51:34.890Z,100401.38
2023-04-03T12:54:05.592Z,100401.06
2023-04-03T12:56:33.801Z,100401.81
2023-04-03T12:59:27.368Z,100402.03
2023-04-03T13:02:01.599Z,100402.25
2023-04-03T13:04:29.933Z,100399.13
2023-04-03T13:06:56.883Z,100394.38
2023-04-03T13:09:26.249Z,100393.97
2023-04-03T13:12:14.372Z,100392.94
2023-04-03T13:14:42.088Z,100385.13
2023-04-03T13:17:15.773Z,100389.28
2023-04-03T13:19:44.567Z,100386.22
2023-04-03T13:22:23.204Z,100382.84
2023-04-03T13:24:52.792Z,100382.66
2023-04-03T13:27:19.940Z,100380.00
2023-04-03T13:29:52.260Z,100377.50
2023-04-03T13:32:23.970Z,100374.59
2023-04-03T13:34:53.816Z,100371.34
2023-04-03T13:37:23.326Z,100371.97
2023-04-03T13:40:13.623Z,100370.38
2023-04-03T13:42:42.890Z,100369.81
2023-04-03T13:45:21.336Z,100367.22
2023-04-03T13:47:52.607Z,100363.97
2023-04-03T13:50:23.730Z,100369.81
2023-04-03T13:52:53.109Z,100371.19
2023-04-03T13:55:30.567Z,100362.56
2023-04-03T13:58:01.283Z,100349.31
2023-04-03T14:00:34.096Z,100353.59
2023-04-03T14:03:00.812Z,100362.19
2023-04-03T14:05:27.730Z,100355.03
2023-04-03T14:07:56.281Z,100358.34
2023-04-03T14:10:23.767Z,100351.00
2023-04-03T14:12:52.197Z,100361.84
2023-04-03T14:15:29.194Z,100356.13
2023-04-03T14:17:56.572Z,100355.56
2023-04-03T14:20:26.839Z,100355.31
2023-04-03T14:22:54.740Z,100351.38
2023-04-03T14:25:23.597Z,100347.16
2023-04-03T14:27:52.326Z,100340.72
2023-04-03T14:30:34.166Z,100352.88
2023-04-03T14:33:02.021Z,100343.28
2023-04-03T14:35:28.850Z,100339.41
2023-04-03T14:37:56.292Z,100338.63
2023-04-03T14:40:28.193Z,100334.97
2023-04-03T14:42:56.416Z,100333.00
2023-04-03T14:45:23.679Z,100334.22
2023-04-03T14:47:53.999Z,100337.75
2023-04-03T14:50:23.501Z,100335.97
2023-04-03T14:52:52.302Z,100338.63
2023-04-03T14:55:21.300Z,100330.66
2023-04-03T14:57:48.197Z,100333.97
2023-04-03T15:00:17.458Z,100335.22
2023-04-03T15:02:44.248Z,100338.28
2023-04-03T15:05:12.471Z,100337.44
2023-04-03T15:07:51.306Z,100345.94
2023-04-03T15:10:24.914Z,100337.44
2023-04-03T15:12:52.597Z,100342.78
2023-04-03T15:15:21.259Z,100334.81
2023-04-03T15:17:51.733Z,100338.91
2023-04-03T15:20:25.036Z,100343.53
2023-04-03T15:22:52.126Z,100343.22
2023-04-03T15:25:19.192Z,100332.25
2023-04-03T15:27:45.895Z,100338.28
2023-04-03T15:30:16.630Z,100342.91
2023-04-03T15:32:43.276Z,100340.50
2023-04-03T15:35:09.903Z,100332.66
2023-04-03T15:37:36.576Z,100336.31
2023-04-03T15:40:04.744Z,100337.84
2023-04-03T15:42:31.215Z,100332.94
2023-04-03T15:44:57.615Z,100329.47
2023-04-03T15:47:26.069Z,100322.34
2023-04-03T15:49:53.433Z,100331.78
2023-04-03T15:52:20.192Z,100336.38
2023-04-03T15:54:46.825Z,100338.28
2023-04-03T15:57:13.296Z,100334.84
2023-04-03T15:59:39.720Z,100342.75
2023-04-03T16:02:09.159Z,100338.66
2023-04-03T16:04:35.661Z,100345.81
2023-04-03T16:07:03.574Z,100341.84
2023-04-03T16:09:31.268Z,100342.63
2023-04-03T16:11:57.729Z,100343.25
2023-04-03T16:14:24.175Z,100343.25
2023-04-03T16:16:50.904Z,100341.53
2023-04-03T16:19:17.464Z,100333.44
2023-04-03T16:21:43.931Z,100334.41
2023-04-03T16:24:10.384Z,100345.16
2023-04-03T16:26:36.835Z,100350.91
2023-04-03T16:29:03.380Z,100344.72
2023-04-03T16:31:30.026Z,100355.06
2023-04-03T16:33:57.321Z,100351.41
2023-04-03T16:36:29.184Z,100349.31
2023-04-03T16:38:55.605Z,100352.59
2023-04-03T16:41:22.013Z,100354.31
2023-04-03T16:43:48.684Z,100359.63
2023-04-03T16:46:15.350Z,100355.41
2023-04-03T16:48:41.966Z,100366.00
2023-04-03T16:51:08.457Z,100364.88
2023-04-03T16:53:34.891Z,100370.50
2023-04-03T16:56:01.287Z,100368.91
2023-04-03T16:58:27.903Z,100372.22
2023-04-03T17:00:54.753Z,100374.41
2023-04-03T17:03:21.853Z,100371.38
2023-04-03T17:05:49.040Z,100377.00
2023-04-03T17:08:18.530Z,100380.59
2023-04-03T17:10:45.030Z,100382.59
2023-04-03T17:13:11.515Z,100384.91
2023-04-03T17:15:38.340Z,100381.13
2023-04-03T17:18:05.481Z,100384.41
2023-04-03T17:20:34.711Z,100385.94
2023-04-03T17:23:01.360Z,100382.34
2023-04-03T17:25:27.925Z,100382.00
2023-04-03T17:27:54.356Z,100388.44
2023-04-03T17:30:20.746Z,100393.72
2023-04-03T17:32:47.190Z,100388.81
2023-04-03T17:35:13.716Z,100387.47
2023-04-03T17:37:40.346Z,100395.78
2023-04-03T17:40:07.714Z,100399.84
2023-04-03T17:42:34.115Z,100399.47
2023-04-03T17:45:01.329Z,100409.59
2023-04-03T17:47:27.834Z,100414.31
2023-04-03T17:49:54.471Z,100410.03
2023-04-03T17:52:23.991Z,100414.66
2023-04-03T17:54:50.482Z,100422.06
2023-04-03T17:57:17.029Z,100426.00
2023-04-03T17:59:43.429Z,100426.75
2023-04-03T18:02:09.884Z,100424.31
2023-04-03T18:04:36.398Z,100425.66
2023-04-03T18:07:03.900Z,100425.72
2023-04-03T18:09:33.289Z,100422.00
2023-04-03T18:12:04.192Z,100437.94
2023-04-03T18:14:32.556Z,100422.44
2023-04-03T18:16:59.317Z,100442.75
2023-04-03T18:19:29.054Z,100446.75
2023-04-03T18:22:00.491Z,100449.78
2023-04-03T18:24:27.389Z,100457.72
2023-04-03T18:26:58.534Z,100460.91
2023-04-03T18:29:25.905Z,100467.19
2023-04-03T18:31:55.796Z,100478.44
2023-04-03T18:34:22.710Z,100488.28
2023-04-03T18:36:49.307Z,100491.69
2023-04-03T18:39:15.966Z,100501.78
2023-04-03T18:41:42.795Z,100505.06
2023-04-03T18:44:15.616Z,100510.31
2023-04-03T18:46:42.303Z,100516.22
2023-04-03T18:49:10.415Z,100507.44
2023-04-03T18:51:39.255Z,100509.91
2023-04-03T18:54:06.529Z,100516.88
2023-04-03T18:56:32.935Z,100517.28
2023-04-03T18:58:59.342Z,100520.88
2023-04-03T19:01:26.067Z,100526.44
2023-04-03T19:03:52.599Z,100526.06
2023-04-03T19:06:19.441Z,100528.53
2023-04-03T19:08:46.285Z,100535.88
2023-04-03T19:11:12.669Z,100545.44
2023-04-03T19:13:46.916Z,100544.16
2023-04-03T19:16:26.097Z,100553.19
2023-04-03T19:18:52.596Z,100561.31
2023-04-03T19:21:19.300Z,100561.94
2023-04-03T19:23:45.845Z,100574.59
2023-04-03T19:26:13.284Z,100567.38
2023-04-03T19:28:41.483Z,100571.25
2023-04-03T19:31:13.611Z,100577.19
2023-04-03T19:33:41.627Z,100572.44
2023-04-03T19:36:08.510Z,100574.38
2023-04-03T19:38:35.610Z,100577.09
2023-04-03T19:41:05.743Z,100579.13
2023-04-03T19:43:32.313Z,100573.63
2023-04-03T19:45:58.763Z,100580.31
2023-04-03T19:48:25.511Z,100581.59
2023-04-03T19:50:51.915Z,100584.41
2023-04-03T19:53:22.110Z,100590.06
2023-04-03T19:55:48.986Z,100592.16
2023-04-03T19:58:15.451Z,100588.66
2023-04-03T20:00:42.160Z,100596.28
2023-04-03T20:03:08.825Z,100596.00
2023-04-03T20:05:35.342Z,100591.63
2023-04-03T20:08:02.203Z,100597.78
2023-04-03T20:10:28.659Z,100603.34
2023-04-03T20:12:55.242Z,100608.13
2023-04-03T20:15:21.938Z,100613.25
2023-04-03T20:17:49.514Z,100617.38
2023-04-03T20:20:16.466Z,100619.94
2023-04-03T20:22:42.934Z,100621.63
2023-04-03T20:25:15.198Z,100616.59
2023-04-03T20:27:44.142Z,100624.84
2023-04-03T20:30:13.116Z,100627.63
2023-04-03T20:32:39.677Z,100632.81
2023-04-03T20:35:06.917Z,100633.47
2023-04-03T20:37:33.926Z,100630.75
2023-04-03T20:40:00.402Z,100632.91
2023-04-03T20:42:27.452Z,100649.81
2023-04-03T20:44:53.892Z,100638.72
2023-04-03T20:47:20.406Z,100642.19
2023-04-03T20:49:46.921Z,100649.75
2023-04-03T20:52:13.422Z,100636.59
2023-04-03T20:54:40.777Z,100653.94
2023-04-03T20:57:07.245Z,100650.72
2023-04-03T20:59:34.203Z,100652.81
2023-04-03T21:02:00.866Z,100654.91
2023-04-03T21:04:36.719Z,100651.13
2023-04-03T21:07:41.415Z,100659.38
2023-04-03T21:10:45.327Z,100655.13
2023-04-03T21:13:49.331Z,100666.81
2023-04-03T21:16:15.676Z,100669.72
2023-04-03T21:18:49.576Z,100670.50
2023-04-03T21:21:23.007Z,100673.06
2023-04-03T21:23:50.622Z,100677.66
2023-04-03T21:26:18.016Z,100679.09
2023-04-03T21:28:44.704Z,100678.72
2023-04-03T21:31:15.119Z,100690.47
2023-04-03T21:33:42.486Z,100687.50
2023-04-03T21:36:10.230Z,100702.53
2023-04-03T21:38:36.763Z,100693.78
2023-04-03T21:41:03.521Z,100697.63
2023-04-03T21:43:30.225Z,100695.41
2023-04-03T21:45:58.573Z,100703.53
2023-04-03T21:48:26.469Z,100705.28
2023-04-03T21:50:53.663Z,100698.63
2023-04-03T21:53:22.526Z,100704.34
2023-04-03T21:55:57.846Z,100703.25
2023-04-03T21:58:31.977Z,100705.41
2023-04-03T22:01:08.274Z,100708.19
2023-04-03T22:03:34.961Z,100710.09
2023-04-03T22:06:01.604Z,100703.13
2023-04-03T22:08:28.969Z,100702.31
2023-04-03T22:11:07.588Z,100706.47
2023-04-03T22:13:34.492Z,100705.22
2023-04-03T22:16:01.810Z,100705.75
2023-04-03T22:18:29.327Z,100707.47
2023-04-03T22:20:56.244Z,100707.09
2023-04-03T22:23:22.778Z,100707.41
2023-04-03T22:26:05.775Z,100711.41
2023-04-03T22:28:34.455Z,100712.88
2023-04-03T22:31:02.639Z,100721.63
2023-04-03T22:33:29.560Z,100717.00
2023-04-03T22:35:56.135Z,100712.56
2023-04-03T22:38:23.036Z,100716.66
2023-04-03T22:40:57.474Z,100716.19
2023-04-03T22:43:24.069Z,100720.38
2023-04-03T22:45:50.592Z,100718.53
2023-04-03T22:48:17.514Z,100720.69
2023-04-03T22:50:44.571Z,100723.34
2023-04-03T22:53:11.145Z,100728.50
2023-04-03T22:55:38.153Z,100732.50
2023-04-03T22:58:04.994Z,100731.41
2023-04-03T23:00:31.989Z,100731.41
2023-04-03T23:02:59.109Z,100734.59
2023-04-03T23:05:25.923Z,100732.84
2023-04-03T23:07:52.540Z,100740.47
2023-04-03T23:10:19.443Z,100745.50
2023-04-03T23:12:45.869Z,100740.84
2023-04-03T23:15:14.447Z,100744.34
2023-04-03T23:17:40.958Z,100748.91
2023-04-03T23:20:07.809Z,100747.09
2023-04-03T23:22:34.241Z,100745.06
2023-04-03T23:25:00.660Z,100759.28
2023-04-03T23:27:27.093Z,100754.91
2023-04-03T23:29:53.586Z,100754.88
2023-04-03T23:32:20.226Z,100751.25
2023-04-03T23:34:46.847Z,100753.53
2023-04-03T23:37:13.237Z,100757.09
2023-04-03T23:39:39.668Z,100758.97
2023-04-03T23:42:09.124Z,100757.25
2023-04-03T23:44:35.728Z,100752.13
2023-04-03T23:47:02.274Z,100754.84
2023-04-03T23:49:28.783Z,100758.19
2023-04-03T23:51:56.858Z,100768.34
2023-04-03T23:54:23.615Z,100766.13
2023-04-03T23:56:50.014Z,100776.63
2023-04-03T23:59:16.442Z,100772.41
